Time;durP1;ratioP1;P1;durP2;ratioP2;P2;SDS_P1;SDS_P2;PMS_P1;PMS_P2;Temp;Humidity;BMP_temperature;BMP_pressure;BME280_temperature;BME280_humidity;BME280_pressure;Samples;Min_cycle;Max_cycle;Signal;HPM_P1;HPM_P2
2023/06/19 00:04:26;;;;;;;16.10;9.30;;;;;;;12.53;80.82;99763.22;220011;1260;140675;-66
2023/06/19 00:09:32;;;;;;;12.80;9.60;;;;;;;12.49;80.87;99764.73;217973;1260;140550;-65
2023/06/19 00:14:37;;;;;;;12.30;8.40;;;;;;;12.46;81.01;99766.89;219524;1261;141646;-65
2023/06/19 00:19:44;;;;;;;;;;;;;;;12.42;80.93;99764.36;218671;1260;139706;-66
2023/06/19 00:24:51;;;;;;;8.90;7.90;;;;;;;12.32;80.84;99767.32;217828;1260;127156;-66
2023/06/19 00:30:01;;;;;;;10.10;9.20;;;;;;;12.26;80.96;99765.39;218758;1260;139501;-66
2023/06/19 00:35:08;;;;;;;14.20;9.60;;;;;;;12.26;81.24;99771.11;217315;1262;139676;-65
2023/06/19 00:40:34;;;;;;;14.10;9.90;;;;;;;12.26;81.33;99765.17;217332;1260;231901;-66
2023/06/19 00:45:40;;;;;;;12.60;10.60;;;;;;;12.23;81.33;99765.09;217492;1262;140420;-65
2023/06/19 00:50:45;;;;;;;9.60;8.70;;;;;;;12.16;81.22;99762.58;217237;1262;139575;-65
2023/06/19 00:55:52;;;;;;;12.60;10.20;;;;;;;12.06;81.44;99768.32;218053;1259;139564;-65
2023/06/19 01:00:58;;;;;;;9.20;8.30;;;;;;;12.00;81.34;99769.65;217270;1263;140111;-66
2023/06/19 01:06:22;;;;;;;9.40;8.50;;;;;;;11.96;81.38;99769.05;217951;1260;139521;-66
2023/06/19 01:11:40;;;;;;;8.40;7.60;;;;;;;11.93;81.49;99765.63;217522;1260;139147;-66
2023/06/19 01:16:47;;;;;;;11.10;8.70;;;;;;;11.87;81.48;99762.67;219036;1257;140243;-66
2023/06/19 01:21:54;;;;;;;11.10;10.00;;;;;;;11.81;81.54;99759.95;217901;1257;140422;-66
2023/06/19 01:26:58;;;;;;;12.10;8.70;;;;;;;11.75;81.55;99752.89;218057;1257;139722;-67
2023/06/19 01:32:13;;;;;;;12.60;10.50;;;;;;;11.71;81.78;99747.94;218821;1261;140380;-67
2023/06/19 01:37:19;;;;;;;9.20;8.30;;;;;;;11.64;81.91;99744.55;218788;1258;140764;-66
2023/06/19 01:42:26;;;;;;;11.50;9.30;;;;;;;11.58;81.78;99747.35;218537;1257;139633;-66
2023/06/19 01:47:32;;;;;;;9.70;8.70;;;;;;;11.53;81.91;99749.14;217694;1260;139553;-67
2023/06/19 01:52:36;;;;;;;7.90;7.10;;;;;;;11.49;82.01;99745.45;220379;1257;140266;-67
2023/06/19 01:57:42;;;;;;;9.40;8.50;;;;;;;11.45;82.01;99746.00;219880;1258;139479;-67
2023/06/19 02:02:46;;;;;;;9.30;7.70;;;;;;;11.43;81.97;99747.89;220441;1257;139251;-68
2023/06/19 02:07:50;;;;;;;8.30;7.60;;;;;;;11.40;82.00;99744.00;220346;1258;140080;-67
2023/06/19 02:12:54;;;;;;;7.70;7.10;;;;;;;11.38;82.04;99744.48;219945;1257;139647;-67
2023/06/19 02:18:00;;;;;;;12.60;8.90;;;;;;;11.37;82.02;99748.46;218847;1258;139470;-65
2023/06/19 02:23:04;;;;;;;11.60;9.90;;;;;;;11.36;82.08;99745.29;217695;1258;152033;-65
2023/06/19 02:28:09;;;;;;;10.20;8.10;;;;;;;11.35;82.33;99747.63;218822;1257;139559;-65
2023/06/19 02:33:14;;;;;;;11.30;7.50;;;;;;;11.32;82.26;99752.86;217920;1258;139470;-65
2023/06/19 02:38:21;;;;;;;12.20;8.20;;;;;;;11.29;82.49;99757.25;217718;1257;139548;-66
2023/06/19 02:43:26;;;;;;;8.40;7.60;;;;;;;11.28;82.62;99754.23;218730;1258;140629;-67
2023/06/19 02:48:31;;;;;;;10.30;9.20;;;;;;;11.24;82.50;99754.59;217933;1260;140668;-67
2023/06/19 02:53:36;;;;;;;9.50;8.40;;;;;;;11.21;82.75;99757.21;217845;1260;139948;-67
2023/06/19 02:58:41;;;;;;;9.40;7.30;;;;;;;11.23;82.81;99756.87;218085;1260;138944;-66
2023/06/19 03:03:47;;;;;;;9.70;7.90;;;;;;;11.22;82.82;99755.93;218389;1257;139204;-67
2023/06/19 03:08:53;;;;;;;10.10;8.40;;;;;;;11.24;82.92;99751.98;217962;1258;141969;-66
2023/06/19 03:13:57;;;;;;;10.60;9.50;;;;;;;11.27;83.23;99750.11;217810;1260;140686;-65
2023/06/19 03:19:03;;;;;;;11.80;9.40;;;;;;;11.34;83.17;99754.66;218033;1257;139673;-65
2023/06/19 03:24:06;;;;;;;10.80;8.20;;;;;;;11.41;83.64;99760.56;218867;1257;139879;-66
2023/06/19 03:29:13;;;;;;;12.10;10.90;;;;;;;11.53;83.73;99763.14;219028;1257;139900;-64
2023/06/19 03:34:18;;;;;;;11.90;10.70;;;;;;;11.69;83.84;99759.77;219326;1257;140252;-67
2023/06/19 03:39:24;;;;;;;14.60;10.80;;;;;;;11.87;84.10;99758.06;218685;1258;140153;-66
2023/06/19 03:44:30;;;;;;;17.60;11.50;;;;;;;12.12;84.21;99763.01;217739;1257;139595;-67
2023/06/19 03:49:35;;;;;;;13.20;11.80;;;;;;;12.38;84.15;99760.66;219528;1257;141576;-65
2023/06/19 03:54:40;;;;;;;17.40;14.70;;;;;;;12.60;84.14;99760.38;218755;1257;140941;-64
2023/06/19 03:59:46;;;;;;;17.40;14.00;;;;;;;12.90;84.36;99762.63;220647;1257;141104;-66
2023/06/19 04:04:53;;;;;;;17.20;14.90;;;;;;;13.24;84.43;99765.30;219012;1256;140106;-65
2023/06/19 04:09:59;;;;;;;15.50;13.80;;;;;;;13.67;84.10;99770.71;219941;1257;139873;-66
2023/06/19 04:15:08;;;;;;;16.00;14.50;;;;;;;13.92;84.18;99770.51;220046;1257;139863;-65
2023/06/19 04:20:14;;;;;;;18.30;15.40;;;;;;;14.26;84.14;99774.52;218758;1256;139815;-65
2023/06/19 04:25:20;;;;;;;17.80;15.80;;;;;;;14.65;83.78;99774.36;219021;1256;140822;-65
2023/06/19 04:30:24;;;;;;;19.60;17.70;;;;;;;14.88;84.11;99782.20;219291;1257;142287;-65
2023/06/19 04:35:31;;;;;;;23.00;16.30;;;;;;;15.31;84.19;99780.48;218461;1256;232387;-65
2023/06/19 04:40:35;;;;;;;17.90;15.80;;;;;;;16.78;83.18;99783.02;218155;1260;139811;-66
2023/06/19 04:45:39;;;;;;;22.20;19.90;;;;;;;18.50;81.28;99782.48;217868;1257;139940;-65
2023/06/19 04:50:43;;;;;;;18.90;17.10;;;;;;;20.32;78.27;99788.79;218559;1257;140542;-67
2023/06/19 04:55:49;;;;;;;21.90;20.00;;;;;;;20.98;76.66;99789.36;218704;1256;140036;-66
2023/06/19 05:00:55;;;;;;;22.50;19.20;;;;;;;20.75;75.40;99797.19;218136;1257;140298;-66
2023/06/19 05:06:01;;;;;;;26.60;21.70;;;;;;;21.15;74.18;99800.69;217741;1258;140019;-66
2023/06/19 05:11:06;;;;;;;24.20;20.30;;;;;;;22.02;72.08;99797.77;217773;1256;140444;-66
2023/06/19 05:16:16;;;;;;;20.00;18.20;;;;;;;24.76;69.07;99798.98;218456;1257;141397;-65
2023/06/19 05:21:22;;;;;;;18.50;16.80;;;;;;;27.84;65.13;99802.34;218184;1257;140510;-64
2023/06/19 05:26:26;;;;;;;16.70;15.10;;;;;;;30.30;61.03;99807.45;218715;1257;139835;-66
2023/06/19 05:31:32;;;;;;;16.90;15.20;;;;;;;31.82;56.59;99816.48;218264;1256;140025;-65
2023/06/19 05:36:37;;;;;;;12.70;11.50;;;;;;;33.20;54.27;99823.05;217945;1257;139372;-65
2023/06/19 05:41:43;;;;;;;9.50;8.80;;;;;;;34.40;50.88;99828.75;218733;1256;139402;-65
2023/06/19 05:46:48;;;;;;;10.50;9.70;;;;;;;34.96;47.91;99830.22;217878;1257;138796;-65
2023/06/19 05:51:58;;;;;;;7.20;6.70;;;;;;;35.92;46.95;99834.52;218780;1256;139523;-65
2023/06/19 05:57:04;;;;;;;7.80;7.20;;;;;;;36.80;44.31;99833.29;219349;1256;138984;-67
2023/06/19 06:02:10;;;;;;;8.00;7.40;;;;;;;37.28;43.01;99832.86;220507;1256;138751;-68
2023/06/19 06:07:17;;;;;;;8.10;7.40;;;;;;;38.10;41.61;99832.73;218290;1256;139562;-68
2023/06/19 06:12:21;;;;;;;6.80;6.20;;;;;;;38.73;40.76;99838.31;217674;1258;138762;-69
2023/06/19 06:17:27;;;;;;;6.80;6.20;;;;;;;38.89;38.34;99836.23;217899;1257;139823;-68
2023/06/19 06:22:32;;;;;;;8.10;6.40;;;;;;;38.95;38.20;99830.08;217797;1257;138580;-68
2023/06/19 06:27:37;;;;;;;7.40;6.80;;;;;;;39.55;37.47;99835.21;219725;1256;140641;-67
2023/06/19 06:32:43;;;;;;;7.60;6.80;;;;;;;39.88;36.06;99842.92;218124;1256;138872;-68
2023/06/19 06:37:50;;;;;;;6.00;5.50;;;;;;;39.60;34.66;99841.65;219344;1255;233327;-68
2023/06/19 06:42:56;;;;;;;7.20;6.70;;;;;;;39.43;34.89;99841.34;217666;1256;140238;-65
2023/06/19 06:48:06;;;;;;;6.80;5.10;;;;;;;39.78;34.49;99840.97;219130;1257;140008;-66
2023/06/19 06:53:12;;;;;;;5.30;4.90;;;;;;;39.47;33.58;99846.77;217743;1258;139095;-66
2023/06/19 06:58:18;;;;;;;5.80;5.30;;;;;;;39.01;32.99;99852.89;217639;1259;138742;-67
2023/06/19 07:03:23;;;;;;;8.60;5.50;;;;;;;38.63;33.39;99847.70;218331;1257;140484;-68
2023/06/19 07:08:29;;;;;;;5.80;5.30;;;;;;;38.82;33.18;99847.42;217727;1257;139068;-68
2023/06/19 07:13:35;;;;;;;5.10;4.60;;;;;;;39.13;33.19;99845.54;218219;1256;141449;-67
2023/06/19 07:18:41;;;;;;;6.30;5.80;;;;;;;39.60;32.77;99856.88;217798;1256;139808;-66
2023/06/19 07:23:49;;;;;;;4.10;3.90;;;;;;;39.56;32.44;99861.66;219127;1256;138886;-67
2023/06/19 07:28:54;;;;;;;3.60;3.40;;;;;;;38.79;32.20;99863.06;217878;1257;140255;-69
2023/06/19 07:34:00;;;;;;;5.00;4.60;;;;;;;37.92;32.72;99859.81;219128;1256;139244;-67
2023/06/19 07:39:04;;;;;;;3.80;3.60;;;;;;;37.04;33.14;99861.83;218266;1259;140998;-68
2023/06/19 07:44:17;;;;;;;4.40;4.10;;;;;;;36.40;33.46;99857.92;217401;1257;138913;-67
2023/06/19 07:49:21;;;;;;;6.10;4.80;;;;;;;35.86;33.28;99855.33;220450;1257;139097;-66
2023/06/19 07:54:26;;;;;;;4.20;3.90;;;;;;;35.15;33.82;99860.23;218344;1260;138664;-65
2023/06/19 07:59:30;;;;;;;5.20;4.80;;;;;;;34.48;34.37;99852.02;220469;1256;139080;-67
2023/06/19 08:04:35;;;;;;;6.60;5.70;;;;;;;33.99;34.34;99853.67;220396;1256;139320;-67
2023/06/19 08:09:39;;;;;;;5.40;5.00;;;;;;;33.50;35.36;99853.90;220459;1256;139503;-67
2023/06/19 08:14:45;;;;;;;5.20;4.80;;;;;;;33.09;35.78;99855.81;219102;1256;140876;-67
2023/06/19 08:19:50;;;;;;;5.30;4.80;;;;;;;32.32;36.27;99857.91;218691;1256;138828;-68
2023/06/19 08:24:54;;;;;;;6.10;5.50;;;;;;;32.05;37.27;99857.20;219229;1256;139350;-66
2023/06/19 08:29:59;;;;;;;5.20;4.90;;;;;;;32.01;37.49;99854.23;218212;1256;140859;-67
2023/06/19 08:35:04;;;;;;;6.20;5.70;;;;;;;31.60;37.13;99850.23;217633;1260;139719;-67
2023/06/19 08:40:09;;;;;;;7.00;6.40;;;;;;;31.07;37.76;99848.02;217115;1257;606108;-69
2023/06/19 08:45:13;;;;;;;6.80;6.20;;;;;;;30.52;37.52;99845.02;217660;1257;139051;-66
2023/06/19 08:50:17;;;;;;;6.60;6.10;;;;;;;29.89;38.65;99840.71;218719;1256;138634;-67
2023/06/19 08:55:22;;;;;;;6.30;5.60;;;;;;;29.73;39.22;99839.65;218184;1256;139150;-66
2023/06/19 09:00:28;;;;;;;7.10;6.50;;;;;;;29.79;39.45;99839.47;217793;1256;139645;-66
2023/06/19 09:05:43;;;;;;;7.20;6.60;;;;;;;29.53;39.90;99841.10;217963;1259;140179;-66
2023/06/19 09:10:57;;;;;;;5.50;5.20;;;;;;;29.77;40.31;99841.00;217641;1257;139768;-66
2023/06/19 09:16:05;;;;;;;5.90;5.40;;;;;;;29.70;39.38;99834.31;218435;1257;139269;-66
2023/06/19 09:21:18;;;;;;;6.20;5.70;;;;;;;29.56;39.74;99827.35;217575;1257;139040;-67
2023/06/19 09:26:22;;;;;;;6.00;5.50;;;;;;;29.74;40.06;99820.20;219163;1256;139054;-65
2023/06/19 09:31:37;;;;;;;6.00;5.60;;;;;;;29.94;39.61;99816.38;218170;1256;139700;-67
2023/06/19 09:36:44;;;;;;;6.20;5.70;;;;;;;29.80;39.70;99820.89;218834;1257;150514;-69
2023/06/19 09:41:51;;;;;;;7.10;6.60;;;;;;;30.08;39.99;99818.63;217829;1260;220937;-65
2023/06/19 09:46:59;;;;;;;6.10;5.60;;;;;;;30.26;39.22;99818.60;219379;1256;140257;-71
2023/06/19 09:52:06;;;;;;;6.30;5.60;;;;;;;30.16;38.95;99816.60;219754;1256;139440;-68
2023/06/19 09:57:11;;;;;;;5.80;5.40;;;;;;;30.29;38.85;99811.65;220111;1256;139974;-65
2023/06/19 10:02:16;;;;;;;7.30;4.90;;;;;;;30.48;39.13;99814.05;219151;1256;140115;-67
2023/06/19 10:07:22;;;;;;;6.70;6.10;;;;;;;30.46;38.36;99814.33;217804;1256;140241;-67
2023/06/19 10:12:38;;;;;;;5.90;5.50;;;;;;;30.44;38.78;99812.16;218553;1256;138881;-68
2023/06/19 10:17:51;;;;;;;5.50;5.20;;;;;;;30.17;38.72;99815.50;218838;1256;139398;-68
2023/06/19 10:23:07;;;;;;;5.20;4.40;;;;;;;29.84;38.74;99810.98;219521;1256;138864;-68
2023/06/19 10:28:23;;;;;;;3.90;3.60;;;;;;;29.93;38.16;99812.59;217812;1257;138776;-68
2023/06/19 10:33:27;;;;;;;;;;;;;;;29.85;37.29;99809.29;218197;1257;138923;-67
2023/06/19 10:38:32;;;;;;;6.00;5.40;;;;;;;30.04;37.90;99800.71;218404;1256;126767;-67
2023/06/19 10:43:36;;;;;;;5.50;5.10;;;;;;;30.18;37.81;99799.02;218615;1256;138761;-67
2023/06/19 10:48:40;;;;;;;;;;;;;;;29.58;37.91;99802.48;217790;1256;138981;-67
2023/06/19 10:53:45;;;;;;;6.00;5.60;;;;;;;29.46;38.41;99803.80;218220;1257;125187;-66
2023/06/19 10:59:00;;;;;;;4.80;4.40;;;;;;;29.95;38.89;99802.81;217513;1257;139815;-68
2023/06/19 11:04:06;;;;;;;4.50;4.20;;;;;;;30.30;38.29;99797.59;217565;1257;138943;-68
2023/06/19 11:09:12;;;;;;;4.90;4.50;;;;;;;30.07;38.19;99799.99;218827;1256;139733;-67
2023/06/19 11:14:17;;;;;;;5.90;5.50;;;;;;;30.09;38.15;99800.20;217598;1260;139073;-67
2023/06/19 11:19:25;;;;;;;5.10;4.60;;;;;;;30.28;37.59;99798.52;218510;1260;139787;-67
2023/06/19 11:24:30;;;;;;;5.60;5.20;;;;;;;30.27;37.95;99792.13;217682;1257;139251;-67
2023/06/19 11:29:36;;;;;;;5.10;4.70;;;;;;;30.36;37.59;99795.28;218306;1256;138789;-68
2023/06/19 11:34:45;;;;;;;;;;;;;;;30.22;37.65;99788.48;217705;1260;139532;-68
2023/06/19 11:39:52;;;;;;;5.90;4.30;;;;;;;29.78;37.54;99791.47;220253;1257;126724;-68
2023/06/19 11:45:01;;;;;;;5.90;5.00;;;;;;;29.57;37.56;99778.09;220293;1256;139027;-68
2023/06/19 11:50:06;;;;;;;7.80;5.00;;;;;;;29.16;37.62;99773.02;220399;1256;141255;-68
2023/06/19 11:55:11;;;;;;;5.90;5.40;;;;;;;29.19;37.98;99773.40;218911;1256;138921;-67
2023/06/19 12:00:17;;;;;;;10.40;4.90;;;;;;;29.40;37.36;99768.98;220437;1256;139470;-71
2023/06/19 12:05:21;;;;;;;4.50;4.20;;;;;;;29.41;37.68;99771.55;218043;1257;139403;-68
2023/06/19 12:10:26;;;;;;;5.10;4.70;;;;;;;29.62;36.88;99765.41;219329;1257;229878;-69
2023/06/19 12:15:31;;;;;;;5.10;3.90;;;;;;;29.98;36.79;99761.50;218313;1256;139754;-68
2023/06/19 12:20:41;;;;;;;3.30;3.00;;;;;;;29.91;36.07;99763.55;218370;1256;139381;-68
2023/06/19 12:25:45;;;;;;;4.00;3.70;;;;;;;29.78;35.73;99758.81;219350;1256;138702;-68
2023/06/19 12:30:51;;;;;;;4.20;3.90;;;;;;;29.28;35.98;99755.95;218052;1259;140863;-68
2023/06/19 12:35:55;;;;;;;4.60;4.30;;;;;;;29.00;36.14;99755.96;218890;1256;139481;-69
2023/06/19 12:41:01;;;;;;;4.90;4.50;;;;;;;29.22;36.28;99743.11;218181;1256;138566;-68
2023/06/19 12:46:05;;;;;;;;;;;;;;;28.95;36.00;99743.05;218376;1257;140223;-68
2023/06/19 12:57:50;;;;;;;4.30;4.00;;;;;;;28.61;37.02;99743.40;218968;1257;140895;-67
2023/06/19 13:02:55;;;;;;;5.30;4.70;;;;;;;28.75;37.27;99739.60;218559;1257;139675;-68
2023/06/19 13:08:00;;;;;;;5.60;5.20;;;;;;;28.96;36.82;99738.61;218597;1259;139865;-68
2023/06/19 13:13:05;;;;;;;6.60;4.90;;;;;;;28.95;36.55;99738.45;218765;1256;138819;-68
2023/06/19 13:18:09;;;;;;;;;;;;;;;29.03;36.60;99731.95;219622;1257;140336;-69
2023/06/19 13:23:15;;;;;;;5.40;4.90;;;;;;;29.14;37.13;99724.59;218962;1257;125506;-69
2023/06/19 13:28:20;;;;;;;6.00;5.60;;;;;;;29.37;36.92;99721.55;219500;1259;139069;-68
2023/06/19 13:33:26;;;;;;;5.60;5.20;;;;;;;29.51;36.81;99720.20;218363;1257;138638;-68
2023/06/19 13:38:31;;;;;;;6.10;5.60;;;;;;;29.55;37.19;99724.06;220518;1257;140463;-68
2023/06/19 13:43:35;;;;;;;;;;;;;;;29.72;37.09;99724.16;220672;1257;139445;-69
2023/06/19 13:48:50;;;;;;;5.50;5.20;;;;;;;29.94;37.02;99723.48;220382;1257;126738;-68
2023/06/19 13:53:56;;;;;;;5.80;5.30;;;;;;;29.98;36.42;99719.69;219197;1257;138628;-68
2023/06/19 13:59:02;;;;;;;6.20;5.80;;;;;;;30.01;36.38;99722.37;220723;1255;138589;-69
2023/06/19 14:04:09;;;;;;;6.60;6.00;;;;;;;29.95;36.32;99720.84;219601;1257;139471;-68
2023/06/19 14:09:14;;;;;;;5.60;5.10;;;;;;;29.99;36.37;99718.79;218993;1257;139103;-68
2023/06/19 14:14:19;;;;;;;6.70;5.80;;;;;;;29.93;36.48;99725.19;218526;1256;138844;-68
2023/06/19 14:19:23;;;;;;;5.10;4.60;;;;;;;30.06;36.12;99722.39;219146;1257;140126;-68
2023/06/19 14:24:28;;;;;;;5.80;5.30;;;;;;;30.10;35.96;99721.27;219549;1256;139920;-69
2023/06/19 14:29:33;;;;;;;6.60;6.00;;;;;;;30.17;36.17;99716.08;218037;1254;139989;-68
2023/06/19 14:34:38;;;;;;;6.00;5.50;;;;;;;30.21;36.26;99712.76;218961;1255;139712;-68
2023/06/19 14:39:44;;;;;;;6.90;6.30;;;;;;;30.10;36.17;99711.95;217921;1256;139114;-69
2023/06/19 14:44:49;;;;;;;6.80;6.30;;;;;;;29.96;36.09;99711.66;218541;1258;138852;-69
2023/06/19 14:49:53;;;;;;;;;;;;;;;29.77;36.08;99713.81;218491;1257;139371;-68
2023/06/19 14:54:58;;;;;;;7.50;6.90;;;;;;;29.63;36.02;99716.13;218424;1259;125443;-68
2023/06/19 15:00:05;;;;;;;7.30;6.70;;;;;;;29.55;36.46;99722.34;219179;1254;139199;-69
2023/06/19 15:05:11;;;;;;;7.00;6.50;;;;;;;29.49;36.58;99714.92;217882;1256;138688;-68
2023/06/19 15:10:17;;;;;;;6.50;6.00;;;;;;;29.34;36.36;99709.48;218889;1255;140566;-68
2023/06/19 15:15:22;;;;;;;6.00;5.50;;;;;;;29.27;36.65;99707.14;219002;1259;138748;-68
2023/06/19 15:20:28;;;;;;;8.00;6.40;;;;;;;29.11;37.08;99702.40;218908;1256;140178;-67
2023/06/19 15:25:34;;;;;;;7.00;6.50;;;;;;;28.96;37.05;99701.60;218879;1257;138818;-68
2023/06/19 15:30:43;;;;;;;6.50;6.00;;;;;;;28.82;37.39;99702.84;220668;1255;150903;-68
2023/06/19 15:35:51;;;;;;;6.30;5.90;;;;;;;28.69;37.53;99701.59;220440;1257;138802;-69
2023/06/19 15:41:00;;;;;;;6.40;5.80;;;;;;;28.63;37.52;99696.19;219593;1254;140333;-68
2023/06/19 15:46:07;;;;;;;7.20;6.60;;;;;;;28.52;37.05;99698.59;220673;1257;139496;-68
2023/06/19 15:51:12;;;;;;;6.80;6.20;;;;;;;28.46;36.89;99698.23;220550;1257;140546;-69
2023/06/19 15:56:19;;;;;;;;;;;;;;;28.45;37.57;99699.91;219158;1257;140115;-68
2023/06/19 16:01:23;;;;;;;7.40;6.80;;;;;;;28.34;37.78;99706.47;219365;1256;124895;-67
2023/06/19 16:06:29;;;;;;;7.30;6.70;;;;;;;28.19;38.47;99706.39;219020;1257;139833;-67
2023/06/19 16:11:35;;;;;;;7.20;6.50;;;;;;;28.07;38.54;99703.79;219425;1256;138414;-67
2023/06/19 16:16:41;;;;;;;7.30;6.50;;;;;;;27.87;39.15;99706.96;218628;1257;139638;-68
2023/06/19 16:21:45;;;;;;;7.50;6.80;;;;;;;27.78;39.16;99700.45;218773;1257;139098;-69
2023/06/19 16:26:49;;;;;;;7.30;6.80;;;;;;;27.72;39.90;99704.22;217816;1259;139670;-67
2023/06/19 16:31:53;;;;;;;6.90;6.40;;;;;;;27.65;40.51;99696.88;218492;1257;142444;-67
2023/06/19 16:37:12;;;;;;;7.50;7.00;;;;;;;27.60;39.98;99698.69;218956;1257;140540;-68
2023/06/19 16:42:19;;;;;;;8.10;7.20;;;;;;;27.56;40.40;99699.34;217955;1255;140330;-67
2023/06/19 16:47:24;;;;;;;7.40;6.60;;;;;;;27.49;41.32;99697.89;218183;1257;140420;-67
2023/06/19 16:52:29;;;;;;;8.40;7.60;;;;;;;27.38;42.25;99701.27;218437;1257;140149;-68
2023/06/19 16:57:34;;;;;;;7.70;7.10;;;;;;;27.20;42.18;99702.85;218099;1257;139154;-67
2023/06/19 17:02:39;;;;;;;7.10;6.60;;;;;;;27.06;42.27;99701.04;218774;1257;138964;-68
2023/06/19 17:07:45;;;;;;;9.30;7.80;;;;;;;26.92;42.86;99701.84;218213;1257;139589;-68
2023/06/19 17:12:51;;;;;;;7.30;6.80;;;;;;;26.77;43.44;99703.56;218258;1259;139273;-68
2023/06/19 17:17:57;;;;;;;;;;;;;;;26.64;44.26;99704.00;218435;1256;139918;-68
2023/06/19 17:23:06;;;;;;;7.70;7.10;;;;;;;26.42;44.59;99705.19;218691;1257;126089;-69
2023/06/19 17:28:10;;;;;;;6.90;6.30;;;;;;;26.24;44.90;99702.91;219979;1257;139056;-68
2023/06/19 17:33:15;;;;;;;8.90;7.80;;;;;;;26.01;45.83;99701.91;220617;1257;141089;-68
2023/06/19 17:38:20;;;;;;;8.80;8.10;;;;;;;25.78;46.52;99702.83;220648;1257;139229;-69
2023/06/19 17:43:23;;;;;;;8.40;7.70;;;;;;;25.56;47.26;99703.66;220680;1256;139477;-68
2023/06/19 17:48:28;;;;;;;8.80;7.90;;;;;;;25.36;47.91;99699.23;219469;1256;138817;-67
2023/06/19 17:53:34;;;;;;;10.50;7.90;;;;;;;25.16;48.59;99698.58;220326;1258;139494;-67
2023/06/19 17:58:38;;;;;;;8.60;7.90;;;;;;;24.92;48.83;99699.83;219987;1255;139495;-67
2023/06/19 18:03:43;;;;;;;13.70;7.30;;;;;;;24.73;49.53;99701.48;219674;1255;139480;-68
2023/06/19 18:08:48;;;;;;;9.10;8.30;;;;;;;24.51;49.95;99702.81;217917;1259;139695;-68
2023/06/19 18:13:53;;;;;;;13.70;7.90;;;;;;;24.29;50.65;99702.06;218652;1257;140563;-67
2023/06/19 18:19:02;;;;;;;10.00;9.20;;;;;;;24.09;51.58;99705.00;217803;1259;139736;-68
2023/06/19 18:24:10;;;;;;;9.90;9.00;;;;;;;23.87;52.25;99702.20;218037;1259;140174;-69
2023/06/19 18:29:15;;;;;;;10.40;9.50;;;;;;;23.56;53.34;99705.88;218593;1259;231373;-69
2023/06/19 18:34:19;;;;;;;11.60;10.40;;;;;;;23.30;54.18;99709.36;218606;1259;141047;-69
2023/06/19 18:39:23;;;;;;;10.60;9.70;;;;;;;23.09;54.87;99706.48;217670;1258;211148;-69
2023/06/19 18:44:28;;;;;;;10.50;9.60;;;;;;;22.88;55.47;99714.04;218018;1257;139975;-70
2023/06/19 18:49:34;;;;;;;12.50;10.90;;;;;;;22.67;55.85;99719.84;218226;1257;140236;-69
2023/06/19 18:54:41;;;;;;;11.70;10.60;;;;;;;22.45;56.19;99730.56;218661;1257;139100;-68
2023/06/19 18:59:48;;;;;;;11.70;10.70;;;;;;;22.17;56.48;99733.38;218021;1257;139133;-67
2023/06/19 19:04:56;;;;;;;11.20;10.20;;;;;;;21.91;57.10;99739.77;218009;1257;139367;-67
2023/06/19 19:10:01;;;;;;;13.50;10.60;;;;;;;21.70;57.89;99738.60;218614;1257;140421;-69
2023/06/19 19:15:10;;;;;;;13.10;12.10;;;;;;;21.46;58.68;99741.38;218635;1258;139503;-67
2023/06/19 19:20:30;;;;;;;12.70;11.30;;;;;;;21.11;59.25;99746.87;219044;1256;209668;-70
2023/06/19 19:25:49;;;;;;;13.70;12.30;;;;;;;20.77;59.93;99757.48;219263;1257;138882;-68
2023/06/19 19:30:58;;;;;;;12.80;11.60;;;;;;;20.57;60.78;99760.04;219464;1257;140572;-68
2023/06/19 19:36:06;;;;;;;13.50;12.20;;;;;;;20.49;61.18;99766.41;218084;1257;140085;-67
2023/06/19 19:41:11;;;;;;;14.10;12.80;;;;;;;20.29;61.48;99773.63;219060;1259;140491;-66
2023/06/19 19:46:16;;;;;;;;;;;;;;;20.07;62.05;99772.27;220568;1257;140940;-66
2023/06/19 19:51:22;;;;;;;15.70;12.30;;;;;;;19.87;62.36;99773.52;219131;1259;125800;-68
2023/06/19 19:56:29;;;;;;;12.90;11.80;;;;;;;19.58;62.78;99778.50;220478;1259;140116;-65
2023/06/19 20:01:34;;;;;;;13.50;12.20;;;;;;;19.38;63.20;99781.10;218872;1256;140237;-66
2023/06/19 20:06:40;;;;;;;16.00;12.60;;;;;;;19.28;63.80;99783.13;218668;1257;139599;-68
2023/06/19 20:11:50;;;;;;;15.70;13.90;;;;;;;19.24;64.21;99785.88;218425;1258;142146;-67
2023/06/19 20:16:56;;;;;;;13.80;12.50;;;;;;;19.19;64.44;99788.88;219137;1257;141065;-67
2023/06/19 20:22:05;;;;;;;15.50;14.00;;;;;;;19.04;64.36;99791.10;218534;1257;140697;-67
2023/06/19 20:27:22;;;;;;;15.30;13.80;;;;;;;18.84;64.79;99790.77;219046;1257;140975;-67
2023/06/19 20:32:36;;;;;;;16.50;14.90;;;;;;;18.75;65.16;99795.60;219179;1258;139759;-67
2023/06/19 20:37:42;;;;;;;17.40;15.60;;;;;;;18.69;65.47;99800.85;218090;1256;142479;-67
2023/06/19 20:42:54;;;;;;;15.50;14.00;;;;;;;18.54;65.68;99801.00;217750;1257;1240234;-66
2023/06/19 20:47:59;;;;;;;16.70;14.70;;;;;;;18.24;66.13;99817.67;217888;1254;140992;-67
2023/06/19 20:53:05;;;;;;;15.50;14.10;;;;;;;18.04;67.13;99815.09;217652;1260;140752;-65
2023/06/19 20:58:10;;;;;;;16.50;15.00;;;;;;;18.00;67.69;99809.67;218554;1257;139869;-67
2023/06/19 21:03:19;;;;;;;15.70;14.10;;;;;;;17.97;68.08;99822.64;217843;1257;140374;-68
2023/06/19 21:08:29;;;;;;;16.90;14.40;;;;;;;17.91;68.13;99819.61;218976;1259;140414;-66
2023/06/19 21:13:35;;;;;;;17.50;15.70;;;;;;;17.74;68.25;99823.34;217836;1258;141225;-66
2023/06/19 21:18:41;;;;;;;16.50;15.00;;;;;;;17.60;68.65;99817.89;219042;1259;140824;-68
2023/06/19 21:23:45;;;;;;;15.50;14.00;;;;;;;17.59;69.08;99811.05;217512;1258;153303;-65
2023/06/19 21:28:49;;;;;;;16.00;14.50;;;;;;;17.49;69.16;99809.27;219033;1257;141795;-66
2023/06/19 21:33:56;;;;;;;16.00;14.50;;;;;;;17.36;69.52;99809.14;218557;1257;140541;-65
2023/06/19 21:39:00;;;;;;;15.70;13.70;;;;;;;17.29;70.03;99808.73;220364;1257;140120;-68
2023/06/19 21:44:05;;;;;;;15.70;14.10;;;;;;;17.31;70.52;99812.02;218006;1258;140417;-63
2023/06/19 21:49:10;;;;;;;16.80;15.10;;;;;;;17.35;70.81;99814.86;220186;1256;148107;-65
2023/06/19 21:54:14;;;;;;;17.30;14.30;;;;;;;17.32;71.08;99822.31;220192;1257;140171;-70
2023/06/19 21:59:18;;;;;;;16.00;14.40;;;;;;;17.28;71.41;99825.61;219381;1257;141408;-66
2023/06/19 22:04:23;;;;;;;16.50;14.80;;;;;;;17.30;71.87;99823.77;219802;1257;140002;-64
2023/06/19 22:09:26;;;;;;;16.60;14.90;;;;;;;17.35;72.34;99826.61;218886;1258;140005;-64
2023/06/19 22:14:37;;;;;;;18.00;15.10;;;;;;;17.35;72.45;99822.62;217512;1257;140572;-67
2023/06/19 22:19:41;;;;;;;19.00;17.00;;;;;;;17.34;72.78;99820.20;218116;1257;142345;-67
2023/06/19 22:24:45;;;;;;;15.30;13.90;;;;;;;17.39;73.12;99822.77;218321;1257;141789;-66
2023/06/19 22:29:50;;;;;;;18.60;16.70;;;;;;;17.36;73.30;99818.15;218742;1258;140627;-66
2023/06/19 22:34:55;;;;;;;18.80;16.80;;;;;;;17.37;73.82;99811.72;218417;1257;140061;-66
2023/06/19 22:40:07;;;;;;;17.30;15.40;;;;;;;17.44;74.04;99804.71;217858;1257;139999;-66
2023/06/19 22:45:12;;;;;;;20.70;16.10;;;;;;;17.47;74.26;99805.94;217906;1260;140426;-65
2023/06/19 22:50:16;;;;;;;19.50;15.60;;;;;;;17.42;74.36;99804.30;217553;1259;140840;-68
2023/06/19 22:55:20;;;;;;;18.60;15.00;;;;;;;17.36;74.59;99801.45;218274;1256;140639;-66
2023/06/19 23:00:25;;;;;;;19.70;16.30;;;;;;;17.32;74.89;99797.15;217490;1260;140726;-66
2023/06/19 23:05:33;;;;;;;16.00;14.40;;;;;;;17.32;75.21;99799.20;218710;1256;140363;-67
2023/06/19 23:10:38;;;;;;;17.70;15.90;;;;;;;17.32;75.50;99793.48;217914;1256;140209;-65
2023/06/19 23:15:43;;;;;;;16.70;15.00;;;;;;;17.32;75.65;99794.02;218792;1257;140956;-63
2023/06/19 23:20:49;;;;;;;16.90;13.60;;;;;;;17.31;75.56;99795.05;217956;1257;140326;-65
2023/06/19 23:25:54;;;;;;;27.40;16.80;;;;;;;17.28;75.62;99794.20;218229;1259;141031;-66
2023/06/19 23:31:00;;;;;;;19.90;15.40;;;;;;;17.27;75.65;99798.40;218942;1257;142516;-66